Time;durP1;ratioP1;P1;durP2;ratioP2;P2;SDS_P1;SDS_P2;PMS_P1;PMS_P2;Temp;Humidity;BMP_temperature;BMP_pressure;BME280_temperature;BME280_humidity;BME280_pressure;Samples;Min_cycle;Max_cycle;Signal;HPM_P1;HPM_P2
2023/01/28 00:01:04;;;;;;;6.72;5.40;;;4.80;99.90;;;;;;5084071;28;20028;-34
2023/01/28 00:03:30;;;;;;;6.30;5.70;;;4.80;99.90;;;;;;5084592;28;20069;-33
2023/01/28 00:06:04;;;;;;;6.55;5.22;;;4.80;99.90;;;;;;5084292;28;20023;-34
2023/01/28 00:08:30;;;;;;;5.68;5.00;;;4.80;99.90;;;;;;5084305;28;20016;-32
2023/01/28 00:11:01;;;;;;;5.93;5.32;;;4.80;99.90;;;;;;5084705;28;20032;-33
2023/01/28 00:13:27;;;;;;;6.40;5.68;;;4.80;99.90;;;;;;5085044;28;20016;-33
2023/01/28 00:15:58;;;;;;;6.53;5.72;;;4.70;99.90;;;;;;5084228;28;20705;-33
2023/01/28 00:18:24;;;;;;;6.20;5.60;;;4.80;99.90;;;;;;5084865;28;20047;-32
2023/01/28 00:21:10;;;;;;;6.93;6.22;;;4.70;99.90;;;;;;5084620;28;20209;-32
2023/01/28 00:23:38;;;;;;;6.07;5.45;;;4.70;99.90;;;;;;5084183;28;20028;-34
2023/01/28 00:26:13;;;;;;;5.90;5.30;;;4.70;99.90;;;;;;5084785;28;20024;-34
2023/01/28 00:28:38;;;;;;;6.43;5.82;;;4.70;99.90;;;;;;5084572;28;20035;-34
2023/01/28 00:31:22;;;;;;;6.82;6.13;;;4.80;99.90;;;;;;5083758;28;20035;-34
2023/01/28 00:33:49;;;;;;;6.53;5.80;;;4.80;99.90;;;;;;5083258;28;20028;-33
2023/01/28 00:36:16;;;;;;;6.88;6.05;;;4.80;99.90;;;;;;5083195;28;20184;-34
2023/01/28 00:38:42;;;;;;;7.22;6.22;;;4.80;99.90;;;;;;5083665;28;20038;-34
2023/01/28 00:41:10;;;;;;;7.13;6.43;;;4.80;99.90;;;;;;5083998;28;20036;-33
2023/01/28 00:43:36;;;;;;;6.80;6.00;;;4.80;99.90;;;;;;5083660;28;20027;-33
2023/01/28 00:46:06;;;;;;;6.55;5.90;;;4.70;99.90;;;;;;5083900;28;20024;-34
2023/01/28 00:48:32;;;;;;;6.78;6.07;;;4.70;99.90;;;;;;5084112;28;20036;-33
2023/01/28 00:50:57;;;;;;;7.22;6.25;;;4.70;99.90;;;;;;5083585;28;20036;-33
2023/01/28 00:53:23;;;;;;;6.93;5.85;;;4.70;99.90;;;;;;5083409;28;20108;-34
2023/01/28 00:55:49;;;;;;;7.22;6.53;;;4.70;99.90;;;;;;5083405;28;20051;-34
2023/01/28 00:58:15;;;;;;;7.05;6.22;;;4.70;99.90;;;;;;5082771;28;20742;-34
2023/01/28 01:00:40;;;;;;;7.10;6.40;;;4.70;99.90;;;;;;5083491;28;20043;-33
2023/01/28 01:03:06;;;;;;;7.55;6.15;;;4.70;99.90;;;;;;5083281;28;20455;-34
2023/01/28 01:05:32;;;;;;;6.85;6.15;;;4.70;99.90;;;;;;5082390;28;20070;-34
2023/01/28 01:07:59;;;;;;;7.25;6.28;;;4.70;99.90;;;;;;5083584;28;20039;-33
2023/01/28 01:10:25;;;;;;;7.40;6.28;;;4.70;99.90;;;;;;5084133;28;20027;-38
2023/01/28 01:12:51;;;;;;;7.68;6.65;;;4.70;99.90;;;;;;5082927;28;20115;-34
2023/01/28 01:15:17;;;;;;;7.57;6.78;;;4.70;99.90;;;;;;5083956;28;20085;-34
2023/01/28 01:17:46;;;;;;;7.88;6.80;;;4.60;99.90;;;;;;5083853;28;20035;-33
2023/01/28 01:20:20;;;;;;;8.20;7.15;;;4.60;99.90;;;;;;5082957;28;20058;-33
2023/01/28 01:22:48;;;;;;;7.75;6.55;;;4.60;99.90;;;;;;5083663;28;20483;-34
2023/01/28 01:25:15;;;;;;;7.38;6.38;;;4.60;99.90;;;;;;5082896;28;20108;-33
2023/01/28 01:27:42;;;;;;;6.45;5.85;;;4.60;99.90;;;;;;5083296;28;20039;-33
2023/01/28 01:30:09;;;;;;;7.22;5.95;;;4.60;99.90;;;;;;5082510;28;20822;-33
2023/01/28 01:32:35;;;;;;;6.63;5.50;;;4.50;99.90;;;;;;5082371;28;20036;-33
2023/01/28 01:35:01;;;;;;;6.80;6.07;;;4.50;99.90;;;;;;5082631;28;20059;-33
2023/01/28 01:37:28;;;;;;;7.43;6.13;;;4.50;99.90;;;;;;5083374;28;20032;-33
2023/01/28 01:39:53;;;;;;;6.22;5.57;;;4.50;99.90;;;;;;5082207;28;20805;-34
2023/01/28 01:42:19;;;;;;;6.72;6.03;;;4.50;99.90;;;;;;5082737;28;20053;-33
2023/01/28 01:45:16;;;;;;;6.63;5.90;;;4.50;99.90;;;;;;5082857;28;20454;-34
2023/01/28 01:47:59;;;;;;;6.82;5.47;;;4.50;99.90;;;;;;5066011;28;20091;-33
2023/01/28 01:50:32;;;;;;;6.65;5.93;;;4.50;99.90;;;;;;5083592;28;20126;-32
2023/01/28 01:53:03;;;;;;;6.95;6.03;;;4.50;99.90;;;;;;5080612;28;20085;-34
2023/01/28 01:55:32;;;;;;;6.57;5.82;;;4.40;99.90;;;;;;5082378;28;20062;-34
2023/01/28 01:58:01;;;;;;;6.88;5.85;;;4.40;99.90;;;;;;5082944;28;20132;-33
2023/01/28 02:00:27;;;;;;;7.20;6.00;;;4.50;99.90;;;;;;5082271;28;20047;-33
2023/01/28 02:02:53;;;;;;;5.88;5.28;;;4.50;99.90;;;;;;5082183;28;20081;-33
2023/01/28 02:05:21;;;;;;;6.10;5.50;;;4.50;99.90;;;;;;5082454;28;20392;-33
2023/01/28 02:07:49;;;;;;;5.90;5.30;;;4.50;99.90;;;;;;5081631;28;20020;-33
2023/01/28 02:10:15;;;;;;;6.30;5.70;;;4.50;99.90;;;;;;5082509;28;20593;-34
2023/01/28 02:12:57;;;;;;;6.47;5.82;;;4.50;99.90;;;;;;5082532;28;20783;-33
2023/01/28 02:15:24;;;;;;;7.15;5.93;;;4.50;99.90;;;;;;5061650;28;20036;-33
2023/01/28 02:17:51;;;;;;;7.68;6.88;;;4.50;99.90;;;;;;5076708;28;20028;-34
2023/01/28 02:20:49;;;;;;;7.15;6.22;;;4.50;99.90;;;;;;5083073;28;20020;-34
2023/01/28 02:23:39;;;;;;;8.70;7.22;;;4.50;99.90;;;;;;5081758;28;20042;-35
2023/01/28 02:26:42;;;;;;;9.07;7.30;;;4.40;99.90;;;;;;5061935;28;20028;-34
2023/01/28 02:29:24;;;;;;;10.05;7.93;;;4.30;99.90;;;;;;5077998;28;20628;-33
2023/01/28 02:32:01;;;;;;;9.05;7.35;;;4.30;99.90;;;;;;5081482;28;20046;-33
2023/01/28 02:34:41;;;;;;;9.77;7.90;;;4.20;99.90;;;;;;5081814;28;20434;-34
2023/01/28 02:37:37;;;;;;;9.88;7.85;;;4.20;99.90;;;;;;5080831;28;20100;-34
2023/01/28 02:40:11;;;;;;;9.48;7.65;;;4.20;99.90;;;;;;5044017;28;20161;-33
2023/01/28 02:42:39;;;;;;;11.35;7.97;;;4.10;99.90;;;;;;5081383;28;20039;-33
2023/01/28 02:45:24;;;;;;;11.15;8.60;;;4.10;99.90;;;;;;5071460;28;20081;-34
2023/01/28 02:47:57;;;;;;;11.95;8.40;;;4.10;99.90;;;;;;5081428;28;20494;-33
2023/01/28 02:50:25;;;;;;;;;;;4.10;99.90;;;;;;5081120;28;20028;-33
2023/01/28 02:56:28;;;;;;;10.07;7.90;;;4.00;99.90;;;;;;5076167;28;20486;-33
2023/01/28 02:59:30;;;;;;;10.00;8.00;;;4.00;99.90;;;;;;5081017;28;20395;-33
2023/01/28 03:02:11;;;;;;;10.85;8.82;;;4.00;99.90;;;;;;5078439;28;20143;-34
2023/01/28 03:04:54;;;;;;;11.77;9.35;;;4.00;99.90;;;;;;5076619;28;20148;-34
2023/01/28 03:07:23;;;;;;;11.30;8.68;;;3.90;99.90;;;;;;5061190;28;20491;-33
2023/01/28 03:09:51;;;;;;;9.57;7.57;;;3.90;99.90;;;;;;5077542;28;20106;-34
2023/01/28 03:38:19;;;;;;;9.88;8.30;;;3.80;99.90;;;;;;5081293;28;20042;-33
2023/01/28 03:40:55;;;;;;;10.32;8.10;;;3.80;99.90;;;;;;5079835;28;20836;-33
2023/01/28 03:43:21;;;;;;;9.52;7.57;;;3.90;99.90;;;;;;5081007;28;20030;-33
2023/01/28 03:45:50;;;;;;;8.82;7.18;;;3.80;99.90;;;;;;5080298;28;20056;-33
2023/01/28 03:48:19;;;;;;;8.32;6.53;;;3.90;99.90;;;;;;5080494;28;20029;-34
2023/01/28 03:50:46;;;;;;;8.98;7.15;;;3.90;99.90;;;;;;5080849;28;20035;-34
2023/01/28 03:53:14;;;;;;;8.80;7.53;;;4.00;99.90;;;;;;5080378;28;20060;-33
2023/01/28 03:55:43;;;;;;;8.00;7.20;;;4.00;99.90;;;;;;5080827;28;20043;-33
2023/01/28 03:58:09;;;;;;;9.80;7.80;;;4.00;99.90;;;;;;5081041;28;20101;-33
2023/01/28 04:00:36;;;;;;;9.25;7.40;;;4.00;99.90;;;;;;5080786;28;20170;-34
2023/01/28 04:03:03;;;;;;;8.48;7.00;;;4.00;99.90;;;;;;5080812;28;20042;-33
2023/01/28 04:05:29;;;;;;;10.32;7.78;;;4.00;99.90;;;;;;5080711;28;20016;-34
2023/01/28 04:07:55;;;;;;;9.45;7.90;;;4.00;99.90;;;;;;5080641;28;20092;-34
2023/01/28 04:10:21;;;;;;;8.90;7.40;;;3.90;99.90;;;;;;5080744;28;20354;-34
2023/01/28 04:12:48;;;;;;;8.73;7.50;;;3.90;99.90;;;;;;5080701;28;20031;-34
2023/01/28 04:15:15;;;;;;;9.23;7.22;;;3.90;99.90;;;;;;5079970;28;20361;-34
2023/01/28 04:17:44;;;;;;;7.80;6.78;;;4.00;99.90;;;;;;5080899;28;20032;-33
2023/01/28 04:20:11;;;;;;;9.00;7.25;;;3.90;99.90;;;;;;5080757;28;20043;-33
2023/01/28 04:22:37;;;;;;;9.80;8.05;;;4.00;99.90;;;;;;5080137;28;20039;-34
2023/01/28 04:25:02;;;;;;;7.55;6.70;;;3.90;99.90;;;;;;5080211;28;20028;-34
2023/01/28 04:27:28;;;;;;;9.52;7.60;;;3.90;99.90;;;;;;5080532;28;20032;-33
2023/01/28 04:29:54;;;;;;;8.93;7.18;;;3.90;99.90;;;;;;5083195;28;20627;-34
2023/01/28 04:32:19;;;;;;;9.05;7.72;;;3.90;99.90;;;;;;5084079;28;20039;-34
2023/01/28 04:34:45;;;;;;;7.82;6.95;;;3.90;99.90;;;;;;5083769;28;20048;-34
2023/01/28 04:37:10;;;;;;;8.60;6.93;;;3.90;99.90;;;;;;5083151;28;20115;-34
2023/01/28 04:39:36;;;;;;;9.00;7.32;;;3.90;99.90;;;;;;5083881;28;20034;-34
2023/01/28 04:42:01;;;;;;;8.93;7.22;;;3.80;99.90;;;;;;5083238;28;20044;-33
2023/01/28 04:44:27;;;;;;;8.45;7.20;;;3.80;99.90;;;;;;5084147;28;20058;-32
2023/01/28 04:46:52;;;;;;;8.93;7.32;;;3.80;99.90;;;;;;5083510;28;20016;-32
2023/01/28 04:49:18;;;;;;;9.38;7.78;;;3.80;99.90;;;;;;5083319;28;20144;-34
2023/01/28 04:51:43;;;;;;;8.80;7.80;;;3.80;99.90;;;;;;5083992;28;20139;-33
2023/01/28 04:54:09;;;;;;;9.70;7.90;;;3.80;99.90;;;;;;5083226;28;20040;-33
2023/01/28 04:56:34;;;;;;;9.93;7.72;;;3.70;99.90;;;;;;5082567;28;20051;-35
2023/01/28 04:59:01;;;;;;;8.57;7.38;;;3.70;99.90;;;;;;5084038;28;20063;-32
2023/01/28 05:01:27;;;;;;;9.05;7.45;;;3.70;99.90;;;;;;5084327;28;20039;-34
2023/01/28 05:03:53;;;;;;;8.80;7.35;;;3.70;99.90;;;;;;5082805;28;20028;-33
2023/01/28 05:06:18;;;;;;;8.40;7.05;;;3.70;99.90;;;;;;5083842;28;20024;-33
2023/01/28 05:08:45;;;;;;;8.20;6.90;;;3.70;99.90;;;;;;5083103;28;20109;-33
2023/01/28 05:11:11;;;;;;;10.70;7.88;;;3.70;99.90;;;;;;5082281;28;20055;-33
2023/01/28 05:13:38;;;;;;;9.35;8.20;;;3.80;99.90;;;;;;5083163;28;20406;-33
2023/01/28 05:16:04;;;;;;;8.85;7.22;;;3.70;99.90;;;;;;5082933;28;20550;-33
2023/01/28 05:18:30;;;;;;;8.80;6.85;;;3.70;99.90;;;;;;5082142;28;20031;-33
2023/01/28 05:20:55;;;;;;;9.90;8.05;;;3.70;99.90;;;;;;5083760;28;20028;-33
2023/01/28 05:23:21;;;;;;;8.95;7.13;;;3.70;99.90;;;;;;5083279;28;20173;-34
2023/01/28 05:25:47;;;;;;;9.90;7.55;;;3.70;99.90;;;;;;5082584;28;20949;-34
2023/01/28 05:28:13;;;;;;;9.95;8.13;;;3.70;99.90;;;;;;5082761;28;20490;-33
2023/01/28 05:30:38;;;;;;;8.30;7.25;;;3.70;99.90;;;;;;5082564;28;20028;-34
2023/01/28 05:33:04;;;;;;;9.43;7.85;;;3.70;99.90;;;;;;5082517;28;20015;-33
2023/01/28 05:35:29;;;;;;;9.57;7.45;;;3.60;99.90;;;;;;5082599;28;20552;-34
2023/01/28 05:37:55;;;;;;;8.35;6.97;;;3.60;99.90;;;;;;5082918;28;20024;-34
2023/01/28 05:40:21;;;;;;;8.20;6.97;;;3.60;99.90;;;;;;5081785;28;20020;-33
2023/01/28 05:42:46;;;;;;;8.35;6.93;;;3.60;99.90;;;;;;5083712;28;20068;-34
2023/01/28 05:45:12;;;;;;;8.02;6.85;;;3.70;99.90;;;;;;5082965;28;20035;-34
2023/01/28 05:47:38;;;;;;;8.05;6.50;;;3.70;99.90;;;;;;5082763;28;20613;-34
2023/01/28 05:50:05;;;;;;;9.63;7.93;;;3.70;99.90;;;;;;5082862;28;20039;-34
2023/01/28 05:52:30;;;;;;;10.48;7.85;;;3.70;99.90;;;;;;5081852;28;20059;-33
2023/01/28 05:54:56;;;;;;;11.13;8.88;;;3.60;99.90;;;;;;5082167;28;20123;-33
2023/01/28 05:57:22;;;;;;;9.35;7.85;;;3.60;99.90;;;;;;5082882;28;20751;-33
2023/01/28 05:59:47;;;;;;;10.07;7.90;;;3.60;99.90;;;;;;5082062;28;20058;-33
2023/01/28 06:02:13;;;;;;;11.02;8.65;;;3.50;99.90;;;;;;5082898;28;20024;-34
2023/01/28 06:04:38;;;;;;;12.75;9.55;;;3.50;99.90;;;;;;5082069;28;20081;-33
2023/01/28 06:07:04;;;;;;;11.50;9.30;;;3.50;99.90;;;;;;5081607;28;20077;-35
2023/01/28 06:09:30;;;;;;;12.27;9.02;;;3.50;99.90;;;;;;5082534;28;20776;-33
2023/01/28 06:11:55;;;;;;;12.73;9.88;;;3.40;99.90;;;;;;5082292;28;20039;-33
2023/01/28 06:14:21;;;;;;;11.73;8.60;;;3.40;99.90;;;;;;5081279;28;20084;-34
2023/01/28 06:16:46;;;;;;;11.80;8.90;;;3.40;99.90;;;;;;5082072;28;20039;-34
2023/01/28 06:19:12;;;;;;;12.35;9.43;;;3.40;99.90;;;;;;5082414;28;20024;-34
2023/01/28 06:21:37;;;;;;;11.27;8.80;;;3.40;99.90;;;;;;5081302;28;20115;-32
2023/01/28 06:24:03;;;;;;;11.80;9.00;;;3.40;99.90;;;;;;5082078;28;20043;-33
2023/01/28 06:26:29;;;;;;;12.13;9.23;;;3.40;99.90;;;;;;5081792;28;20019;-33
2023/01/28 06:28:55;;;;;;;10.40;8.48;;;3.40;99.90;;;;;;5081284;28;20636;-33
2023/01/28 06:31:20;;;;;;;13.13;9.00;;;3.40;99.90;;;;;;5081667;28;20030;-32
2023/01/28 06:33:46;;;;;;;11.07;8.60;;;3.40;99.90;;;;;;5082152;28;20489;-33
2023/01/28 06:36:11;;;;;;;13.18;9.45;;;3.30;99.90;;;;;;5080990;28;20068;-33
2023/01/28 06:38:37;;;;;;;13.98;8.80;;;3.30;99.90;;;;;;5082343;28;20120;-33
2023/01/28 06:41:03;;;;;;;9.77;8.00;;;3.40;99.90;;;;;;5081830;28;20454;-33
2023/01/28 06:43:29;;;;;;;11.30;8.65;;;3.40;99.90;;;;;;5081092;28;20024;-34
2023/01/28 06:45:58;;;;;;;11.52;9.25;;;3.40;99.90;;;;;;5081782;28;20024;-34
2023/01/28 06:48:25;;;;;;;11.90;9.65;;;3.40;99.90;;;;;;5081781;28;20024;-33
2023/01/28 06:50:51;;;;;;;11.10;8.80;;;3.30;99.90;;;;;;5081084;28;20015;-34
2023/01/28 06:53:18;;;;;;;12.05;9.30;;;3.30;99.90;;;;;;5081673;28;20028;-34
2023/01/28 06:55:43;;;;;;;12.13;9.25;;;3.30;99.90;;;;;;5080333;28;20115;-34
2023/01/28 06:58:09;;;;;;;11.82;9.10;;;3.30;99.90;;;;;;5081476;28;20081;-33
2023/01/28 07:00:36;;;;;;;12.73;9.30;;;3.20;99.90;;;;;;5081390;28;20121;-33
2023/01/28 07:03:02;;;;;;;10.25;8.55;;;3.30;99.90;;;;;;5079843;28;20012;-32
2023/01/28 07:05:28;;;;;;;11.55;9.25;;;3.20;99.90;;;;;;5081506;28;20051;-32
2023/01/28 07:07:53;;;;;;;9.18;7.75;;;3.30;99.90;;;;;;5080784;28;20532;-33
2023/01/28 07:10:19;;;;;;;12.25;9.02;;;3.30;99.90;;;;;;5081036;28;20586;-33
2023/01/28 07:12:44;;;;;;;11.27;9.00;;;3.30;99.90;;;;;;5081427;28;20829;-34
2023/01/28 07:15:10;;;;;;;11.10;9.10;;;3.20;99.90;;;;;;5080814;28;20036;-33
2023/01/28 07:17:40;;;;;;;11.63;9.05;;;3.20;99.90;;;;;;5080237;28;20020;-33
2023/01/28 07:20:08;;;;;;;10.20;8.55;;;3.20;99.90;;;;;;5081426;28;20024;-34
2023/01/28 07:22:34;;;;;;;10.05;8.50;;;3.20;99.90;;;;;;5081227;28;20127;-32
2023/01/28 07:25:00;;;;;;;10.80;8.30;;;3.20;99.90;;;;;;5080640;28;20029;-33
2023/01/28 07:27:26;;;;;;;10.98;9.00;;;3.20;99.90;;;;;;5081400;28;20083;-32
2023/01/28 07:29:52;;;;;;;9.90;8.30;;;3.20;99.90;;;;;;5081110;28;20076;-33
2023/01/28 07:32:17;;;;;;;12.10;9.27;;;3.20;99.90;;;;;;5082960;28;20034;-33
2023/01/28 07:34:43;;;;;;;11.15;9.07;;;3.20;99.90;;;;;;5081622;28;20090;-33
2023/01/28 07:37:09;;;;;;;12.93;10.07;;;3.20;99.90;;;;;;5080049;28;20051;-34
2023/01/28 07:39:34;;;;;;;12.82;10.10;;;3.10;99.90;;;;;;5079125;28;20020;-33
2023/01/28 07:42:00;;;;;;;15.05;10.55;;;3.20;99.90;;;;;;5080904;28;20453;-34
2023/01/28 07:44:26;;;;;;;11.35;9.05;;;3.10;99.90;;;;;;5078690;28;20812;-34
2023/01/28 07:46:53;;;;;;;11.63;9.45;;;3.10;99.90;;;;;;5079566;28;20028;-35
2023/01/28 07:49:18;;;;;;;11.95;9.45;;;3.10;99.90;;;;;;5079706;28;20028;-35
2023/01/28 07:51:45;;;;;;;11.05;8.77;;;3.20;99.90;;;;;;5080606;28;20039;-33
2023/01/28 07:54:12;;;;;;;11.73;9.27;;;3.20;99.90;;;;;;5079355;28;20469;-35
2023/01/28 07:56:37;;;;;;;11.48;9.20;;;3.20;99.90;;;;;;5080327;28;20048;-33
2023/01/28 07:59:03;;;;;;;11.70;8.57;;;3.20;99.90;;;;;;5079691;28;20105;-33
2023/01/28 08:01:29;;;;;;;12.85;9.75;;;3.20;99.90;;;;;;5080094;28;20031;-34
2023/01/28 08:03:54;;;;;;;10.18;8.15;;;3.20;99.90;;;;;;5080508;28;20031;-34
2023/01/28 08:06:20;;;;;;;11.32;8.90;;;3.20;99.90;;;;;;5083530;28;20020;-34
2023/01/28 08:08:47;;;;;;;11.90;8.70;;;3.20;99.90;;;;;;5083448;28;20034;-33
2023/01/28 08:11:13;;;;;;;10.75;8.80;;;3.10;99.90;;;;;;5084414;28;20458;-33
2023/01/28 08:13:38;;;;;;;11.18;9.32;;;3.20;99.90;;;;;;5082834;28;20028;-33
2023/01/28 08:16:05;;;;;;;11.27;9.40;;;3.20;99.90;;;;;;5083527;28;20051;-34
2023/01/28 08:18:31;;;;;;;10.98;9.10;;;3.20;99.90;;;;;;5083279;28;20031;-33
2023/01/28 08:20:58;;;;;;;13.25;8.95;;;3.10;99.90;;;;;;5083323;28;20447;-34
2023/01/28 08:23:27;;;;;;;11.43;8.40;;;3.20;99.90;;;;;;5084947;28;20792;-34
2023/01/28 08:25:54;;;;;;;11.55;8.77;;;3.10;99.90;;;;;;5083305;28;20054;-34
2023/01/28 08:28:20;;;;;;;11.00;9.18;;;3.10;99.90;;;;;;5083897;28;20020;-34
2023/01/28 08:30:46;;;;;;;9.63;8.25;;;3.20;99.90;;;;;;5084089;28;20100;-34
2023/01/28 08:33:13;;;;;;;9.70;8.27;;;3.20;99.90;;;;;;5083447;28;20024;-33
2023/01/28 08:35:39;;;;;;;10.65;8.77;;;3.20;99.90;;;;;;5082789;28;20051;-34
2023/01/28 08:38:06;;;;;;;11.10;9.15;;;3.20;99.90;;;;;;5084960;28;20024;-33
2023/01/28 08:40:32;;;;;;;11.73;9.70;;;3.20;99.90;;;;;;5083501;28;20112;-34
2023/01/28 08:42:58;;;;;;;12.05;9.85;;;3.10;99.90;;;;;;5083056;28;20027;-34
2023/01/28 08:45:25;;;;;;;11.63;9.38;;;3.10;99.90;;;;;;5087984;28;20027;-34
2023/01/28 08:47:59;;;;;;;10.10;8.43;;;3.10;99.90;;;;;;5083203;28;20028;-34
2023/01/28 08:50:27;;;;;;;9.27;8.30;;;3.00;99.90;;;;;;5082882;28;20027;-33
2023/01/28 08:52:57;;;;;;;9.30;8.20;;;3.00;99.90;;;;;;5083903;28;20562;-34
2023/01/28 08:55:24;;;;;;;9.40;8.40;;;3.10;99.90;;;;;;5083486;28;20040;-33
2023/01/28 08:57:49;;;;;;;8.30;7.38;;;3.10;99.90;;;;;;5083865;28;20028;-34
2023/01/28 09:00:15;;;;;;;9.13;7.80;;;3.10;99.90;;;;;;5083210;28;20038;-33
2023/01/28 09:02:41;;;;;;;9.13;8.15;;;3.10;99.90;;;;;;5083086;28;20067;-34
2023/01/28 09:05:07;;;;;;;8.55;7.13;;;3.20;99.90;;;;;;5083612;28;20020;-34
2023/01/28 09:07:37;;;;;;;8.45;7.50;;;3.20;99.90;;;;;;5083380;28;20039;-34
2023/01/28 09:10:04;;;;;;;8.95;7.70;;;3.20;99.90;;;;;;5082870;28;20028;-33
2023/01/28 09:12:30;;;;;;;7.80;7.00;;;3.20;99.90;;;;;;5083302;28;20107;-34
2023/01/28 09:14:55;;;;;;;8.20;7.38;;;3.30;99.90;;;;;;5083624;28;20038;-34
2023/01/28 09:17:21;;;;;;;8.88;7.35;;;3.40;99.90;;;;;;5082959;28;20565;-34
2023/01/28 09:19:47;;;;;;;8.27;7.38;;;3.40;99.90;;;;;;5083462;28;20103;-34
2023/01/28 09:22:12;;;;;;;8.40;7.43;;;3.40;99.90;;;;;;5083216;28;20036;-34
2023/01/28 09:24:38;;;;;;;9.07;8.10;;;3.40;99.90;;;;;;5081714;28;20027;-34
2023/01/28 09:27:03;;;;;;;8.80;7.65;;;3.50;99.90;;;;;;5083813;28;20827;-33
2023/01/28 09:29:29;;;;;;;8.30;7.40;;;3.40;99.90;;;;;;5082868;28;20024;-34
2023/01/28 09:31:54;;;;;;;8.23;7.05;;;3.40;99.90;;;;;;5081508;28;20023;-34
2023/01/28 09:34:20;;;;;;;8.23;7.40;;;3.40;99.90;;;;;;5082446;28;20047;-33
2023/01/28 09:36:45;;;;;;;8.95;7.70;;;3.50;99.90;;;;;;5082275;28;20043;-34
2023/01/28 09:39:11;;;;;;;8.60;7.50;;;3.50;99.90;;;;;;5081661;28;20183;-34
2023/01/28 09:41:55;;;;;;;8.95;7.90;;;3.50;99.90;;;;;;5081907;28;20093;-33
2023/01/28 09:44:23;;;;;;;8.77;7.50;;;3.50;99.90;;;;;;5082714;28;20020;-33
2023/01/28 09:46:49;;;;;;;8.15;7.35;;;3.50;99.90;;;;;;5081225;28;20027;-34
2023/01/28 09:49:36;;;;;;;9.73;7.43;;;3.50;99.90;;;;;;5082080;28;20779;-33
2023/01/28 09:52:02;;;;;;;8.27;7.38;;;3.60;99.90;;;;;;5081532;28;20061;-34
2023/01/28 09:54:49;;;;;;;8.55;7.65;;;3.70;99.90;;;;;;5082101;28;20490;-34
2023/01/28 09:57:24;;;;;;;8.55;7.57;;;3.70;99.90;;;;;;5082578;28;20038;-35
2023/01/28 09:59:50;;;;;;;8.68;7.78;;;3.70;99.90;;;;;;5069360;28;20233;-35
2023/01/28 10:02:25;;;;;;;8.90;7.25;;;3.70;99.90;;;;;;5066667;28;20031;-33
2023/01/28 10:05:19;;;;;;;7.75;6.68;;;3.80;99.90;;;;;;5071828;28;20047;-34
2023/01/28 10:07:54;;;;;;;8.07;7.10;;;3.80;99.90;;;;;;5049227;28;20143;-33
2023/01/28 10:10:28;;;;;;;7.80;7.00;;;3.80;99.90;;;;;;5081717;28;20116;-33
2023/01/28 10:13:27;;;;;;;7.75;6.93;;;3.80;99.90;;;;;;5080844;28;20017;-35
2023/01/28 10:16:11;;;;;;;7.72;6.93;;;3.90;99.90;;;;;;5081818;28;20104;-35
2023/01/28 10:18:49;;;;;;;8.30;7.18;;;3.90;99.90;;;;;;5081301;28;20077;-33
2023/01/28 10:21:25;;;;;;;8.00;7.18;;;3.90;99.90;;;;;;5081135;28;20476;-33
2023/01/28 10:24:04;;;;;;;7.55;6.75;;;4.00;99.90;;;;;;5080466;28;20024;-34
2023/01/28 10:26:37;;;;;;;6.60;5.90;;;4.10;99.90;;;;;;5080542;28;20715;-34
2023/01/28 10:29:23;;;;;;;;;;;4.20;99.90;;;;;;5081082;28;20039;-36
2023/01/28 10:32:03;;;;;;;6.40;5.70;;;4.30;99.90;;;;;;5081169;28;19965;-35
2023/01/28 10:34:29;;;;;;;6.43;5.65;;;4.30;99.90;;;;;;5079852;28;20491;-34
2023/01/28 10:36:56;;;;;;;7.50;6.65;;;4.30;99.90;;;;;;5080963;28;20042;-34
2023/01/28 10:39:25;;;;;;;7.10;6.40;;;4.30;99.90;;;;;;5081104;28;20016;-34
2023/01/28 10:41:51;;;;;;;7.95;7.15;;;4.20;99.90;;;;;;5080821;28;20115;-34
2023/01/28 10:44:34;;;;;;;9.68;6.45;;;4.20;99.90;;;;;;5081360;28;20022;-33
2023/01/28 10:47:12;;;;;;;7.70;6.30;;;4.20;99.90;;;;;;5081153;28;20035;-34
2023/01/28 10:49:42;;;;;;;6.65;5.55;;;4.10;99.90;;;;;;5080238;28;20537;-34
2023/01/28 10:52:13;;;;;;;6.63;5.80;;;4.10;99.90;;;;;;5080762;28;20024;-33
2023/01/28 10:54:39;;;;;;;6.22;5.60;;;4.10;99.90;;;;;;5080018;28;20101;-34
2023/01/28 10:57:11;;;;;;;6.10;5.20;;;4.10;99.90;;;;;;5080299;28;20484;-34
2023/01/28 10:59:40;;;;;;;6.82;5.72;;;4.10;99.90;;;;;;5080372;28;20059;-34
2023/01/28 11:02:24;;;;;;;5.70;5.15;;;4.10;99.90;;;;;;5080207;28;20051;-34
2023/01/28 11:05:01;;;;;;;5.80;4.75;;;4.10;99.90;;;;;;5081015;28;20032;-34
2023/01/28 11:07:26;;;;;;;5.43;4.80;;;4.10;99.90;;;;;;5080549;28;20028;-35
2023/01/28 11:09:52;;;;;;;6.15;5.55;;;4.10;99.90;;;;;;5079422;28;20844;-34
2023/01/28 11:12:21;;;;;;;5.82;5.03;;;4.10;99.90;;;;;;5080300;28;20024;-34
2023/01/28 11:15:02;;;;;;;5.80;5.00;;;4.10;99.90;;;;;;5080588;28;22351;-34
2023/01/28 11:17:29;;;;;;;6.15;5.47;;;4.10;99.90;;;;;;5079861;28;20220;-34
2023/01/28 11:19:59;;;;;;;6.50;5.80;;;4.10;99.90;;;;;;5080798;28;20016;-34
2023/01/28 11:22:45;;;;;;;5.85;5.25;;;4.20;99.90;;;;;;5080968;28;20082;-34
2023/01/28 11:25:20;;;;;;;5.53;5.00;;;4.30;99.90;;;;;;5079636;28;20020;-34
2023/01/28 11:27:47;;;;;;;6.72;6.07;;;4.30;99.90;;;;;;5080247;28;20612;-40
2023/01/28 11:30:33;;;;;;;6.22;5.63;;;4.40;99.90;;;;;;5079912;28;20074;-35
2023/01/28 11:33:04;;;;;;;7.10;5.45;;;4.40;99.90;;;;;;5072245;28;20510;-34
2023/01/28 11:35:30;;;;;;;5.95;5.03;;;4.30;99.90;;;;;;5079759;28;20139;-34
2023/01/28 11:38:00;;;;;;;6.85;5.28;;;4.20;99.90;;;;;;5081065;28;20067;-34
2023/01/28 11:40:26;;;;;;;7.20;5.13;;;4.20;99.90;;;;;;5084380;28;20026;-35
2023/01/28 11:42:56;;;;;;;7.57;5.38;;;4.20;99.90;;;;;;5084523;28;20024;-35
2023/01/28 11:45:37;;;;;;;5.63;5.03;;;4.20;99.90;;;;;;5084597;28;20043;-35
2023/01/28 11:48:29;;;;;;;5.47;4.97;;;4.20;99.90;;;;;;5084821;28;20035;-34
2023/01/28 11:51:17;;;;;;;6.10;5.50;;;4.20;99.90;;;;;;5084874;28;20032;-35
2023/01/28 11:53:49;;;;;;;6.82;5.90;;;4.20;99.90;;;;;;5076424;28;20522;-35
2023/01/28 11:56:28;;;;;;;6.43;5.25;;;4.20;99.90;;;;;;5084966;28;20039;-34
2023/01/28 11:59:04;;;;;;;5.20;4.65;;;4.20;99.90;;;;;;5083770;28;20035;-34
2023/01/28 12:02:07;;;;;;;5.55;4.95;;;4.20;99.90;;;;;;5084722;28;20024;-35
2023/01/28 12:05:03;;;;;;;5.30;4.80;;;4.20;99.90;;;;;;5084148;28;20060;-34
2023/01/28 12:07:49;;;;;;;6.10;5.50;;;4.30;99.90;;;;;;5083574;28;20023;-35
2023/01/28 12:10:52;;;;;;;7.97;6.32;;;4.30;99.90;;;;;;5053428;28;20040;-34
2023/01/28 12:13:36;;;;;;;7.55;5.75;;;4.40;99.90;;;;;;5058932;28;20430;-34
2023/01/28 12:16:28;;;;;;;6.78;5.95;;;4.40;99.90;;;;;;5084302;28;20039;-35
2023/01/28 12:19:18;;;;;;;6.10;5.50;;;4.50;99.90;;;;;;5083831;28;20067;-34
2023/01/28 12:22:07;;;;;;;6.72;6.03;;;4.60;99.90;;;;;;5083482;28;20020;-34
2023/01/28 12:24:48;;;;;;;6.72;5.88;;;4.60;99.90;;;;;;5073714;28;20470;-34
2023/01/28 12:27:47;;;;;;;7.00;6.10;;;4.70;99.90;;;;;;5082995;28;20020;-35
2023/01/28 12:30:30;;;;;;;5.85;5.30;;;4.80;99.90;;;;;;5084008;28;20028;-35
2023/01/28 12:33:05;;;;;;;6.32;5.63;;;4.80;99.90;;;;;;5083938;28;20052;-34
2023/01/28 12:35:44;;;;;;;6.75;5.65;;;4.90;99.90;;;;;;5082609;28;20056;-33
2023/01/28 12:38:28;;;;;;;6.05;5.30;;;4.90;99.90;;;;;;5083525;28;20028;-35
2023/01/28 12:41:03;;;;;;;6.78;6.00;;;4.90;99.90;;;;;;5083102;28;20104;-34
2023/01/28 12:43:32;;;;;;;6.90;5.93;;;4.90;99.90;;;;;;5083395;28;20352;-35
2023/01/28 12:46:22;;;;;;;7.30;6.07;;;4.90;99.90;;;;;;5083829;28;20443;-35
2023/01/28 12:48:59;;;;;;;6.90;6.20;;;5.00;99.90;;;;;;5082148;28;20528;-33
2023/01/28 12:51:53;;;;;;;7.22;6.07;;;5.10;99.90;;;;;;5083615;28;20052;-33
2023/01/28 12:54:31;;;;;;;6.72;5.80;;;5.20;99.90;;;;;;5083582;28;20024;-34
2023/01/28 12:56:57;;;;;;;6.88;6.05;;;5.30;99.90;;;;;;5063527;28;20093;-35
2023/01/28 12:59:33;;;;;;;6.53;5.82;;;5.40;99.90;;;;;;5081535;28;20016;-34
2023/01/28 13:02:10;;;;;;;6.85;6.15;;;5.50;99.90;;;;;;5061989;28;20052;-34
2023/01/28 13:05:11;;;;;;;6.38;5.78;;;5.50;99.90;;;;;;5079016;28;20094;-34
2023/01/28 13:08:01;;;;;;;6.60;5.90;;;5.50;99.90;;;;;;5063528;28;20028;-33
2023/01/28 13:10:43;;;;;;;7.15;6.18;;;5.50;99.90;;;;;;5082499;28;20024;-35
2023/01/28 13:13:41;;;;;;;7.47;5.97;;;5.50;99.90;;;;;;5083250;28;20032;-34
2023/01/28 13:16:08;;;;;;;7.30;6.20;;;5.50;99.90;;;;;;5074013;28;20926;-34
2023/01/28 13:18:39;;;;;;;6.97;6.00;;;5.50;99.90;;;;;;5082550;28;20043;-35
2023/01/28 13:21:09;;;;;;;7.70;6.28;;;5.50;99.90;;;;;;5083451;28;20769;-33
2023/01/28 13:23:46;;;;;;;7.35;6.35;;;5.40;99.90;;;;;;5082336;28;20024;-33
2023/01/28 13:26:17;;;;;;;7.07;6.30;;;5.40;99.90;;;;;;5080684;28;20028;-33
2023/01/28 13:28:43;;;;;;;6.32;5.68;;;5.30;99.90;;;;;;5082759;28;20391;-33
2023/01/28 13:31:16;;;;;;;6.80;6.00;;;5.30;99.90;;;;;;5081419;28;20491;-34
2023/01/28 13:33:45;;;;;;;6.63;5.93;;;5.20;99.90;;;;;;5082435;28;20039;-34
2023/01/28 13:36:23;;;;;;;6.93;5.75;;;5.10;99.90;;;;;;5082121;28;20092;-33
2023/01/28 13:39:04;;;;;;;5.97;5.38;;;5.10;99.90;;;;;;5082060;28;20031;-33
2023/01/28 13:41:37;;;;;;;7.95;6.13;;;5.10;99.90;;;;;;5082332;28;20066;-34
2023/01/28 13:44:03;;;;;;;7.90;6.25;;;5.00;99.90;;;;;;5082987;28;20047;-34